• Join FlightAware (Why Join?)
  • Login
  • US Flag 
12:49PM EDT


 

Airport Tracker/Info


-or-


 

Live Flight TrackerFlight Track Log ✈ SWA1586 ✈ 06-May-2013 ✈ KSLC - KDEN

Flight Track Log - Related Links

Times and Time Zones

All times are in EDT time to prevent confusion due to time zone crossing. See the SWA1586 flight status page for this flight to view local times or setup timezone preferences in your user account.

Time Position Orientation Groundspeed Altitude Reporting Facility
EDT Latitude Longitude Course Direction KTS MPH feet Rate Location/Type
09:49PM 40.7719 -111.9997 180° South 147 169 5,500  Level Salt Lake Center
09:49PM 40.7675 -111.9997 180° South 154 177 5,700 1,080 Climbing Salt Lake Center
09:49PM 40.7564 -112.0417 251° West 202 232 6,300 1,740 Climbing Salt Lake Center
09:50PM 40.7642 -112.0767 286° West 233 268 7,500 2,520 Climbing Salt Lake Center
09:51PM 40.8175 -112.1456 316° Northwest 269 310 10,500 3,120 Climbing Salt Lake Center
09:52PM 40.9083 -112.1311 North 346 398 13,900 3,120 Climbing Salt Lake Center
09:53PM 40.9131 -112.0053 87° East 351 404 16,900 2,880 Climbing Salt Lake Center
09:54PM 40.9175 -111.8731 87° East 367 422 19,900 2,400 Climbing Salt Lake Center
09:56PM 40.9236 -111.5969 88° East 395 455 24,500 2,340 Climbing Salt Lake Center
09:57PM 40.9114 -111.4208 95° East 405 466 27,100 2,160 Climbing Salt Lake Center
09:58PM 40.8944 -111.2678 98° East 422 486 29,000 1,920 Climbing Salt Lake Center
10:00PM 40.8667 -111.0736 90° East  Level FlightAware Approximate
10:00PM 40.8572 -110.9600 90° East 428 493 33,200  Level Salt Lake Center
10:01PM 40.8392 -110.8097 99° East 420 483 34,900 1,260 Climbing Salt Lake Center
10:02PM 40.8200 -110.6567 99° East 422 486 35,900 1,020 Climbing Salt Lake Center
10:03PM 40.7997 -110.4839 99° East 434 499 37,000 1,080 Climbing Salt Lake Center
10:05PM 40.7658 -110.2269 100° East 441 507 38,800 960 Climbing Denver Center
10:05PM 40.7553 -110.1492 100° East 441 507 39,000 120 Climbing Salt Lake Center
10:06PM 40.7378 -109.9944 98° East 446 513 39,000  Level Salt Lake Center
10:07PM 40.7267 -109.8131 95° East 445 512 39,000  Level Salt Lake Center
10:08PM 40.7150 -109.6586 96° East 442 509 39,000  Level Salt Lake Center
10:09PM 40.7036 -109.5036 95° East 442 509 39,000  Level Salt Lake Center
10:10PM 40.6903 -109.3244 96° East 442 509 39,000  Level Salt Lake Center
10:11PM 40.6772 -109.1522 96° East 443 510 39,000  Level Salt Lake Center
10:13PM 40.6656 -108.9978 96° East 445 512 39,000  Level Salt Lake Center
10:14PM 40.6528 -108.8422 96° East 448 516 39,000  Level Salt Lake Center
10:14PM 40.6439 -108.7233 96° East 448 516 39,000  Level Denver Center
10:15PM 40.6311 -108.5667 96° East 449 517 39,000  Level Denver Center
10:16PM 40.6258 -108.5025 96° East 452 520 39,000  Level Salt Lake Center
10:16PM 40.6153 -108.3811 96° East 455 524 39,000  Level Denver Center
10:17PM 40.6097 -108.3192 97° East 453 521 39,000  Level Salt Lake Center
10:18PM 40.5958 -108.1619 97° East 455 524 39,000  Level Salt Lake Center
10:18PM 40.5861 -108.0381 96° East 455 524 39,000  Level Denver Center
10:19PM 40.5719 -107.8803 97° East 454 522 39,000  Level Denver Center
10:20PM 40.5583 -107.7228 96° East 453 521 39,000  Level Denver Center
10:21PM 40.5411 -107.5386 97° East 454 522 39,000  Level Denver Center
10:22PM 40.5275 -107.3817 96° East 452 520 39,000  Level Denver Center
10:23PM 40.5147 -107.2058 95° East 451 519 39,000 -180 Level Denver Center
10:24PM 40.5064 -107.0394 94° East 453 521 38,700 -660 Descending Denver Center
10:25PM 40.4972 -106.8739 94° East 452 520 37,700 -1,020 Descending Denver Center
10:26PM 40.4875 -106.7103 94° East 449 517 36,700 -960 Descending Denver Center
10:27PM 40.4781 -106.5436 94° East 453 521 35,800 -1,620 Descending Denver Center
10:29PM 40.4667 -106.3608 95° East 445 512 33,500 -1,980 Descending Denver Center
10:30PM 40.4589 -106.2075 94° East 441 507 31,800 -1,860 Descending Denver Center
10:31PM 40.4492 -106.0556 95° East 440 506 29,700 -2,160 Descending Denver Center
10:32PM 40.4314 -105.9011 99° East 423 487 27,400 -2,400 Descending Denver Center
10:33PM 40.4028 -105.7264 102° East 416 479 24,800 -2,100 Descending Denver Center
10:34PM 40.3794 -105.5839 102° East 401 461 23,200 -1,500 Descending Denver Center
10:35PM 40.3583 -105.4489 102° East 387 445 21,800 -1,500 Descending Denver Center
10:36PM 40.3006 -105.3475 127° Southeast 354 407 20,200 -1,680 Descending Denver Center
10:37PM 40.2356 -105.2461 130° Southeast 340 391 18,400 -1,620 Descending Denver Center
10:38PM 40.1903 -105.1758 130° Southeast 331 381 17,000 -720 Descending Denver Center
10:39PM 40.1225 -105.0700 130° Southeast 304 350 17,000 -480 Level Denver Center
10:40PM 40.0678 -104.9844 130° Southeast 285 328 16,100 -1,140 Descending Denver Center
10:41PM 40.0172 -104.9067 130° Southeast 282 325 14,700 -1,320 Descending Denver Center
10:42PM 39.9686 -104.8308 130° Southeast 275 316 13,400 -1,140 Descending Denver Center
10:43PM 39.9011 -104.8061 164° South 259 298 12,400 -900 Descending Denver Center
10:44PM 39.8269 -104.8081 181° South 249 287 11,600 -720 Descending Denver Center
10:45PM 39.7628 -104.8097 181° South 233 268 11,000 -840 Descending Denver Center
10:46PM 39.6914 -104.8108 181° South 235 270 10,000 -900 Descending Denver Center
10:47PM 39.6256 -104.8133 182° South 242 278 9,100 -420 Descending Denver Center
10:48PM 39.5489 -104.8161 182° South 227 261 9,000 -60 Descending Denver Center
10:49PM 39.5425 -104.7572 98° East 224 258 9,000 -120 Level Denver Center
10:50PM 39.5953 -104.7183 30° Northeast 219 252 8,800 -300 Descending Denver Center
10:51PM 39.6517 -104.6753 30° Northeast 218 251 8,400 -720 Descending Denver Center
10:52PM 39.7078 -104.6622 10° North 207 238 7,400 -780 Descending Denver Center
10:54PM 39.7633 -104.6617 360° North 201 231 6,700 -840 Descending Denver Center
10:55PM 39.8189 -104.6606 North 163 188 5,600 -1,140 Descending Denver Center
10:57PM 39.8500 -104.6667 North  Level FlightAware Approximate
11:04PM 39.8617 -104.6732 North  Level Estimated
11:05PM 39.8617 -104.6732 North  Level Estimated
11:06PM 39.8617 -104.6732 North  Level Estimated